Time,TemperatureF,DewpointF,PressureIn,WindDirection,WindDirectionDegrees,WindSpeedMPH,WindSpeedGustMPH,Humidity,HourlyPrecipIn,Conditions,Clouds,dailyrainin,SoftwareType,DateUTC
2013-02-19 00:00:00,22.0,17.6,30.12,NW,307,3.0,5.0,83,0.00,,,0.00,Wunderground v.1.15,2013-02-19 06:00:00,
2013-02-19 00:10:00,22.3,17.9,30.13,NNW,340,4.0,7.0,83,0.00,,,0.00,Wunderground v.1.15,2013-02-19 06:10:00,
2013-02-19 00:15:00,22.6,18.2,30.13,North,360,6.0,7.0,83,0.00,,,0.00,Wunderground v.1.15,2013-02-19 06:15:00,
2013-02-19 00:25:00,22.7,17.7,30.13,NNW,347,8.0,8.0,81,0.00,,,0.00,Wunderground v.1.15,2013-02-19 06:25:00,
2013-02-19 00:35:00,22.4,16.6,30.13,NNW,335,11.0,17.0,78,0.00,,,0.00,Wunderground v.1.15,2013-02-19 06:35:00,
2013-02-19 00:45:00,21.7,15.9,30.14,NNW,335,11.0,17.0,78,0.00,,,0.00,Wunderground v.1.15,2013-02-19 06:45:00,
2013-02-19 00:55:00,21.0,15.2,30.14,NNW,343,11.0,12.0,78,0.00,,,0.00,Wunderground v.1.15,2013-02-19 06:55:00,
2013-02-19 01:00:00,20.2,14.1,30.15,North,352,11.0,11.0,77,0.00,,,0.00,Wunderground v.1.15,2013-02-19 07:00:00,
2013-02-19 01:10:00,19.2,13.2,30.16,NW,323,11.0,11.0,77,0.00,,,0.00,Wunderground v.1.15,2013-02-19 07:10:00,
2013-02-19 01:20:00,18.7,12.1,30.16,North,356,13.0,13.0,75,0.00,,,0.00,Wunderground v.1.15,2013-02-19 07:20:00,
2013-02-19 01:30:00,18.3,12.0,30.17,NNW,337,11.0,12.0,76,0.00,,,0.00,Wunderground v.1.15,2013-02-19 07:30:00,
2013-02-19 01:40:00,18.2,12.2,30.17,WNW,295,11.0,11.0,77,0.00,,,0.00,Wunderground v.1.15,2013-02-19 07:40:00,
2013-02-19 01:50:00,18.1,11.5,30.17,NW,316,11.0,12.0,75,0.00,,,0.00,Wunderground v.1.15,2013-02-19 07:50:00,
2013-02-19 02:00:00,17.8,10.3,30.17,NNW,328,16.0,16.0,72,0.00,,,0.00,Wunderground v.1.15,2013-02-19 08:00:00,
2013-02-19 02:10:00,17.3,10.1,30.18,NW,325,14.0,16.0,73,0.00,,,0.00,Wunderground v.1.15,2013-02-19 08:10:00,
2013-02-19 02:15:00,17.1,10.2,30.18,NNW,333,13.0,16.0,74,0.00,,,0.00,Wunderground v.1.15,2013-02-19 08:15:00,
2013-02-19 02:25:00,16.7,10.1,30.19,NNW,333,12.0,15.0,75,0.00,,,0.00,Wunderground v.1.15,2013-02-19 08:25:00,
2013-02-19 02:35:00,16.1,9.9,30.20,NNW,342,11.0,14.0,76,0.00,,,0.00,Wunderground v.1.15,2013-02-19 08:35:00,
2013-02-19 02:45:00,15.6,9.4,30.20,NNE,30,10.0,13.0,76,0.00,,,0.00,Wunderground v.1.15,2013-02-19 08:45:00,
2013-02-19 02:55:00,15.2,9.0,30.20,NNW,329,11.0,11.0,76,0.00,,,0.00,Wunderground v.1.15,2013-02-19 08:55:00,
2013-02-19 03:00:00,15.0,9.1,30.20,North,350,10.0,10.0,77,0.00,,,0.00,Wunderground v.1.15,2013-02-19 09:00:00,
2013-02-19 03:10:00,14.6,8.7,30.21,NNW,338,9.0,9.0,77,0.00,,,0.00,Wunderground v.1.15,2013-02-19 09:10:00,
2013-02-19 03:20:00,14.3,9.0,30.21,NNW,342,7.0,7.0,79,0.00,,,0.00,Wunderground v.1.15,2013-02-19 09:20:00,
2013-02-19 03:30:00,13.9,8.6,30.21,NW,320,9.0,9.0,79,0.00,,,0.00,Wunderground v.1.15,2013-02-19 09:30:00,
2013-02-19 03:40:00,13.4,8.1,30.21,NNW,335,9.0,10.0,79,0.00,,,0.00,Wunderground v.1.15,2013-02-19 09:40:00,
2013-02-19 03:50:00,13.2,8.2,30.21,NW,325,9.0,9.0,80,0.00,,,0.00,Wunderground v.1.15,2013-02-19 09:50:00,
2013-02-19 04:00:00,12.9,7.9,30.22,NNW,335,8.0,8.0,80,0.00,,,0.00,Wunderground v.1.15,2013-02-19 10:00:00,
2013-02-19 04:10:00,12.9,7.9,30.22,North,6,9.0,9.0,80,0.00,,,0.00,Wunderground v.1.15,2013-02-19 10:10:00,
2013-02-19 04:15:00,12.8,7.8,30.22,WNW,297,8.0,12.0,80,0.00,,,0.00,Wunderground v.1.15,2013-02-19 10:15:00,
2013-02-19 04:25:00,12.8,7.8,30.23,NNW,335,9.0,11.0,80,0.00,,,0.00,Wunderground v.1.15,2013-02-19 10:25:00,
2013-02-19 04:35:00,12.7,6.6,30.23,NW,314,13.0,13.0,76,0.00,,,0.00,Wunderground v.1.15,2013-02-19 10:35:00,
2013-02-19 04:45:00,12.4,6.0,30.24,West,266,13.0,15.0,75,0.00,,,0.00,Wunderground v.1.15,2013-02-19 10:45:00,
2013-02-19 04:55:00,12.1,6.0,30.24,NNW,340,13.0,17.0,76,0.00,,,0.00,Wunderground v.1.15,2013-02-19 10:55:00,
2013-02-19 05:00:00,11.9,5.8,30.24,NW,314,12.0,12.0,76,0.00,,,0.00,Wunderground v.1.15,2013-02-19 11:00:00,
2013-02-19 05:10:00,11.7,5.9,30.25,WNW,296,11.0,13.0,77,0.00,,,0.00,Wunderground v.1.15,2013-02-19 11:10:00,
2013-02-19 05:15:00,11.6,5.8,30.25,North,350,11.0,13.0,77,0.00,,,0.00,Wunderground v.1.15,2013-02-19 11:15:00,
2013-02-19 05:25:00,11.3,5.2,30.25,NNW,328,11.0,16.0,76,0.00,,,0.00,Wunderground v.1.15,2013-02-19 11:25:00,
2013-02-19 05:35:00,11.0,4.6,30.26,NNW,328,13.0,17.0,75,0.00,,,0.00,Wunderground v.1.15,2013-02-19 11:35:00,
2013-02-19 05:45:00,10.6,4.2,30.27,NW,320,13.0,17.0,75,0.00,,,0.00,Wunderground v.1.15,2013-02-19 11:45:00,
2013-02-19 05:55:00,10.4,4.3,30.27,North,10,12.0,13.0,76,0.00,,,0.00,Wunderground v.1.15,2013-02-19 11:55:00,
2013-02-19 06:00:00,10.3,4.2,30.27,North,352,11.0,11.0,76,0.00,,,0.00,Wunderground v.1.15,2013-02-19 12:00:00,
2013-02-19 06:10:00,10.0,4.2,30.28,North,356,11.0,16.0,77,0.00,,,0.00,Wunderground v.1.15,2013-02-19 12:10:00,
2013-02-19 06:20:00,9.8,4.0,30.28,NNE,16,11.0,11.0,77,0.00,,,0.00,Wunderground v.1.15,2013-02-19 12:20:00,
2013-02-19 06:30:00,9.5,4.0,30.28,WNW,300,10.0,10.0,78,0.00,,,0.00,Wunderground v.1.15,2013-02-19 12:30:00,
2013-02-19 06:40:00,9.5,3.5,30.28,NNW,337,9.0,16.0,76,0.00,,,0.00,Wunderground v.1.15,2013-02-19 12:40:00,
2013-02-19 06:50:00,9.4,3.4,30.29,NNW,335,12.0,12.0,76,0.00,,,0.00,Wunderground v.1.15,2013-02-19 12:50:00,
2013-02-19 07:00:00,9.1,3.1,30.30,North,354,10.0,10.0,76,0.00,,,0.00,Wunderground v.1.15,2013-02-19 13:00:00,
2013-02-19 07:10:00,8.9,2.9,30.31,NNE,19,9.0,12.0,76,0.00,,,0.00,Wunderground v.1.15,2013-02-19 13:10:00,
2013-02-19 07:15:00,8.9,2.9,30.31,NNW,333,10.0,12.0,76,0.00,,,0.00,Wunderground v.1.15,2013-02-19 13:15:00,
2013-02-19 07:25:00,8.7,2.7,30.32,NNW,335,9.0,14.0,76,0.00,,,0.00,Wunderground v.1.15,2013-02-19 13:25:00,
2013-02-19 07:35:00,8.7,3.0,30.33,NNW,333,8.0,10.0,77,0.00,,,0.00,Wunderground v.1.15,2013-02-19 13:35:00,
2013-02-19 07:45:00,8.9,2.9,30.33,NNW,329,9.0,13.0,76,0.00,,,0.00,Wunderground v.1.15,2013-02-19 13:45:00,
2013-02-19 07:55:00,9.0,2.7,30.34,NW,316,11.0,11.0,75,0.00,,,0.00,Wunderground v.1.15,2013-02-19 13:55:00,
2013-02-19 08:00:00,9.2,2.9,30.34,NW,323,11.0,13.0,75,0.00,,,0.00,Wunderground v.1.15,2013-02-19 14:00:00,
2013-02-19 08:10:00,9.2,2.3,30.34,WNW,295,12.0,14.0,73,0.00,,,0.00,Wunderground v.1.15,2013-02-19 14:10:00,
2013-02-19 08:20:00,9.2,2.6,30.35,North,350,13.0,13.0,74,0.00,,,0.00,Wunderground v.1.15,2013-02-19 14:20:00,
2013-02-19 08:30:00,9.2,2.6,30.36,NNW,335,13.0,15.0,74,0.00,,,0.00,Wunderground v.1.15,2013-02-19 14:30:00,
2013-02-19 08:40:00,9.4,2.2,30.36,NNW,338,14.0,18.0,72,0.00,,,0.00,Wunderground v.1.15,2013-02-19 14:40:00,
2013-02-19 08:50:00,9.5,2.3,30.37,NW,325,14.0,14.0,72,0.00,,,0.00,Wunderground v.1.15,2013-02-19 14:50:00,
2013-02-19 09:00:00,9.9,2.7,30.38,NNW,334,12.0,13.0,72,0.00,,,0.00,Wunderground v.1.15,2013-02-19 15:00:00,
2013-02-19 09:10:00,10.0,2.5,30.38,NNW,338,13.0,13.0,71,0.00,,,0.00,Wunderground v.1.15,2013-02-19 15:10:00,
2013-02-19 09:15:00,10.4,3.2,30.38,NNW,328,13.0,14.0,72,0.00,,,0.00,Wunderground v.1.15,2013-02-19 15:15:00,
2013-02-19 09:25:00,10.3,2.8,30.38,NNW,332,14.0,17.0,71,0.00,,,0.00,Wunderground v.1.15,2013-02-19 15:25:00,
2013-02-19 09:35:00,10.9,3.0,30.39,NNW,329,13.0,17.0,70,0.00,,,0.00,Wunderground v.1.15,2013-02-19 15:35:00,
2013-02-19 09:45:00,11.3,3.1,30.39,NW,325,13.0,13.0,69,0.00,,,0.00,Wunderground v.1.15,2013-02-19 15:45:00,
2013-02-19 09:55:00,11.9,4.0,30.39,NNW,335,12.0,15.0,70,0.00,,,0.00,Wunderground v.1.15,2013-02-19 15:55:00,
2013-02-19 10:00:00,12.1,3.9,30.39,NNW,339,12.0,12.0,69,0.00,,,0.00,Wunderground v.1.15,2013-02-19 16:00:00,
2013-02-19 10:10:00,12.6,4.3,30.39,NNW,348,12.0,14.0,69,0.00,,,0.00,Wunderground v.1.15,2013-02-19 16:10:00,
2013-02-19 10:15:00,12.9,3.7,30.40,NNW,345,12.0,14.0,66,0.00,,,0.00,Wunderground v.1.15,2013-02-19 16:15:00,
2013-02-19 10:25:00,13.4,4.1,30.40,NNW,346,13.0,16.0,66,0.00,,,0.00,Wunderground v.1.15,2013-02-19 16:25:00,
2013-02-19 10:35:00,13.9,4.6,30.40,NW,325,11.0,12.0,66,0.00,,,0.00,Wunderground v.1.15,2013-02-19 16:35:00,
2013-02-19 10:45:00,14.4,4.8,30.40,NW,316,11.0,12.0,65,0.00,,,0.00,Wunderground v.1.15,2013-02-19 16:45:00,
2013-02-19 10:55:00,15.1,5.1,30.40,WNW,300,11.0,15.0,64,0.00,,,0.00,Wunderground v.1.15,2013-02-19 16:55:00,
2013-02-19 11:00:00,15.6,5.2,30.40,NNW,342,10.0,11.0,63,0.00,,,0.00,Wunderground v.1.15,2013-02-19 17:00:00,
2013-02-19 11:10:00,16.2,5.5,30.40,NNW,341,11.0,11.0,62,0.00,,,0.00,Wunderground v.1.15,2013-02-19 17:10:00,
2013-02-19 11:20:00,17.0,5.5,30.40,North,10,11.0,14.0,60,0.00,,,0.00,Wunderground v.1.15,2013-02-19 17:20:00,
2013-02-19 11:30:00,17.5,6.3,30.40,NNE,16,11.0,12.0,61,0.00,,,0.00,Wunderground v.1.15,2013-02-19 17:30:00,
2013-02-19 11:40:00,17.9,6.0,30.40,NNW,330,11.0,11.0,59,0.00,,,0.00,Wunderground v.1.15,2013-02-19 17:40:00,
2013-02-19 11:50:00,18.6,6.6,30.40,NNW,339,10.0,12.0,59,0.00,,,0.00,Wunderground v.1.15,2013-02-19 17:50:00,
2013-02-19 12:00:00,19.3,6.5,30.40,NNW,333,9.0,10.0,57,0.00,,,0.00,Wunderground v.1.15,2013-02-19 18:00:00,
2013-02-19 12:10:00,19.8,6.2,30.41,NNW,347,9.0,9.0,55,0.00,,,0.00,Wunderground v.1.15,2013-02-19 18:10:00,
2013-02-19 12:15:00,20.0,6.8,30.41,NNW,330,9.0,10.0,56,0.00,,,0.00,Wunderground v.1.15,2013-02-19 18:15:00,
2013-02-19 12:25:00,20.2,7.0,30.40,NW,311,9.0,11.0,56,0.00,,,0.00,Wunderground v.1.15,2013-02-19 18:25:00,
2013-02-19 12:35:00,20.6,6.6,30.40,NNW,337,11.0,16.0,54,0.00,,,0.00,Wunderground v.1.15,2013-02-19 18:35:00,
2013-02-19 12:45:00,20.8,6.7,30.40,NNW,337,11.0,14.0,54,0.00,,,0.00,Wunderground v.1.15,2013-02-19 18:45:00,
2013-02-19 12:55:00,21.6,6.2,30.39,North,359,11.0,14.0,51,0.00,,,0.00,Wunderground v.1.15,2013-02-19 18:55:00,
2013-02-19 13:00:00,21.8,6.4,30.39,NNW,344,12.0,12.0,51,0.00,,,0.00,Wunderground v.1.15,2013-02-19 19:00:00,
2013-02-19 13:10:00,22.3,7.3,30.39,NNW,344,10.0,10.0,52,0.00,,,0.00,Wunderground v.1.15,2013-02-19 19:10:00,
2013-02-19 13:20:00,22.5,7.5,30.39,North,1,10.0,10.0,52,0.00,,,0.00,Wunderground v.1.15,2013-02-19 19:20:00,
2013-02-19 13:30:00,23.1,6.3,30.39,NNW,336,9.0,9.0,48,0.00,,,0.00,Wunderground v.1.15,2013-02-19 19:30:00,
2013-02-19 13:40:00,22.7,5.9,30.39,WNW,297,8.0,12.0,48,0.00,,,0.00,Wunderground v.1.15,2013-02-19 19:40:00,
2013-02-19 13:50:00,23.1,6.7,30.38,NW,323,9.0,9.0,49,0.00,,,0.00,Wunderground v.1.15,2013-02-19 19:50:00,
2013-02-19 14:00:00,23.4,5.6,30.38,NNW,334,10.0,10.0,46,0.00,,,0.00,Wunderground v.1.15,2013-02-19 20:00:00,
2013-02-19 14:10:00,24.0,7.6,30.38,WNW,288,9.0,9.0,49,0.00,,,0.00,Wunderground v.1.15,2013-02-19 20:10:00,
2013-02-19 14:20:00,24.2,5.9,30.38,NW,326,9.0,9.0,45,0.00,,,0.00,Wunderground v.1.15,2013-02-19 20:20:00,
2013-02-19 14:30:00,23.8,5.5,30.37,NNW,327,10.0,10.0,45,0.00,,,0.00,Wunderground v.1.15,2013-02-19 20:30:00,
2013-02-19 14:40:00,24.5,6.2,30.37,North,352,9.0,9.0,45,0.00,,,0.00,Wunderground v.1.15,2013-02-19 20:40:00,
2013-02-19 14:50:00,24.6,5.3,30.37,NNW,330,9.0,9.0,43,0.00,,,0.00,Wunderground v.1.15,2013-02-19 20:50:00,
2013-02-19 15:00:00,25.0,5.6,30.38,NNW,335,8.0,8.0,43,0.00,,,0.00,Wunderground v.1.15,2013-02-19 21:00:00,
2013-02-19 15:10:00,25.1,5.2,30.38,NNW,333,8.0,8.0,42,0.00,,,0.00,Wunderground v.1.15,2013-02-19 21:10:00,
2013-02-19 15:15:00,25.4,6.0,30.38,NNW,330,8.0,8.0,43,0.00,,,0.00,Wunderground v.1.15,2013-02-19 21:15:00,
2013-02-19 15:25:00,25.0,5.1,30.38,NNW,330,9.0,10.0,42,0.00,,,0.00,Wunderground v.1.15,2013-02-19 21:25:00,
2013-02-19 15:35:00,25.4,4.9,30.38,NNE,23,9.0,12.0,41,0.00,,,0.00,Wunderground v.1.15,2013-02-19 21:35:00,
2013-02-19 15:45:00,25.4,4.4,30.38,NE,46,7.0,9.0,40,0.00,,,0.00,Wunderground v.1.15,2013-02-19 21:45:00,
2013-02-19 15:55:00,25.5,3.9,30.38,North,356,8.0,8.0,39,0.00,,,0.00,Wunderground v.1.15,2013-02-19 21:55:00,
2013-02-19 16:00:00,25.5,4.5,30.38,NW,325,8.0,8.0,40,0.00,,,0.00,Wunderground v.1.15,2013-02-19 22:00:00,
2013-02-19 16:10:00,25.3,4.3,30.37,NW,321,10.0,10.0,40,0.00,,,0.00,Wunderground v.1.15,2013-02-19 22:10:00,
2013-02-19 16:20:00,25.4,3.3,30.37,NNW,331,8.0,8.0,38,0.00,,,0.00,Wunderground v.1.15,2013-02-19 22:20:00,
2013-02-19 16:30:00,25.4,3.8,30.37,NW,322,8.0,8.0,39,0.00,,,0.00,Wunderground v.1.15,2013-02-19 22:30:00,
2013-02-19 16:40:00,25.3,4.3,30.38,NNW,340,8.0,8.0,40,0.00,,,0.00,Wunderground v.1.15,2013-02-19 22:40:00,
2013-02-19 16:50:00,25.1,3.0,30.37,NW,317,8.0,9.0,38,0.00,,,0.00,Wunderground v.1.15,2013-02-19 22:50:00,
2013-02-19 17:00:00,24.8,3.3,30.37,North,356,8.0,8.0,39,0.00,,,0.00,Wunderground v.1.15,2013-02-19 23:00:00,
2013-02-19 17:10:00,24.6,3.7,30.36,North,359,8.0,8.0,40,0.00,,,0.00,Wunderground v.1.15,2013-02-19 23:10:00,
2013-02-19 17:15:00,24.4,3.5,30.36,NW,325,7.0,9.0,40,0.00,,,0.00,Wunderground v.1.15,2013-02-19 23:15:00,
2013-02-19 17:25:00,24.2,4.4,30.36,NNW,338,7.0,8.0,42,0.00,,,0.00,Wunderground v.1.15,2013-02-19 23:25:00,
2013-02-19 17:35:00,23.6,2.2,30.37,NNE,15,8.0,8.0,39,0.00,,,0.00,Wunderground v.1.15,2013-02-19 23:35:00,
2013-02-19 17:45:00,23.1,1.8,30.37,NNE,22,8.0,8.0,39,0.00,,,0.00,Wunderground v.1.15,2013-02-19 23:45:00,
2013-02-19 17:55:00,22.3,2.6,30.37,NNE,27,8.0,9.0,42,0.00,,,0.00,Wunderground v.1.15,2013-02-19 23:55:00,
2013-02-19 18:00:00,21.9,3.3,30.37,North,8,8.0,8.0,44,0.00,,,0.00,Wunderground v.1.15,2013-02-20 00:00:00,
2013-02-19 18:10:00,21.2,3.1,30.37,NNE,24,6.0,6.0,45,0.00,,,0.00,Wunderground v.1.15,2013-02-20 00:10:00,
2013-02-19 18:20:00,20.5,2.5,30.38,North,359,6.0,7.0,45,0.00,,,0.00,Wunderground v.1.15,2013-02-20 00:20:00,
2013-02-19 18:30:00,20.2,2.7,30.39,NNE,32,5.0,7.0,46,0.00,,,0.00,Wunderground v.1.15,2013-02-20 00:30:00,
2013-02-19 18:40:00,19.5,3.0,30.38,North,9,7.0,9.0,48,0.00,,,0.00,Wunderground v.1.15,2013-02-20 00:40:00,
2013-02-19 18:50:00,18.9,2.9,30.39,NNE,14,6.0,6.0,49,0.00,,,0.00,Wunderground v.1.15,2013-02-20 00:50:00,
2013-02-19 19:00:00,18.3,2.7,30.38,North,5,7.0,7.0,50,0.00,,,0.00,Wunderground v.1.15,2013-02-20 01:00:00,
2013-02-19 19:10:00,17.9,3.6,30.39,North,349,5.0,5.0,53,0.00,,,0.00,Wunderground v.1.15,2013-02-20 01:10:00,
2013-02-19 19:20:00,17.2,3.8,30.40,NNE,32,4.0,4.0,55,0.00,,,0.00,Wunderground v.1.15,2013-02-20 01:20:00,
2013-02-19 19:30:00,16.7,4.1,30.40,North,6,4.0,4.0,57,0.00,,,0.00,Wunderground v.1.15,2013-02-20 01:30:00,
2013-02-19 19:40:00,16.4,3.8,30.39,North,356,6.0,10.0,57,0.00,,,0.00,Wunderground v.1.15,2013-02-20 01:40:00,
2013-02-19 19:50:00,16.0,3.8,30.39,NNE,21,8.0,8.0,58,0.00,,,0.00,Wunderground v.1.15,2013-02-20 01:50:00,
2013-02-19 19:55:00,15.9,3.7,30.39,NNE,18,8.0,8.0,58,0.00,,,0.00,Wunderground v.1.15,2013-02-20 01:55:00,
2013-02-19 20:00:00,15.6,3.8,30.39,NNE,21,7.0,7.0,59,0.00,,,0.00,Wunderground v.1.15,2013-02-20 02:00:00,
2013-02-19 20:10:00,15.2,3.8,30.40,North,360,4.0,5.0,60,0.00,,,0.00,Wunderground v.1.15,2013-02-20 02:10:00,
2013-02-19 20:15:00,15.2,3.8,30.40,NNE,26,5.0,7.0,60,0.00,,,0.00,Wunderground v.1.15,2013-02-20 02:15:00,
2013-02-19 20:25:00,14.9,3.9,30.40,North,9,6.0,7.0,61,0.00,,,0.00,Wunderground v.1.15,2013-02-20 02:25:00,
2013-02-19 20:35:00,14.6,3.9,30.40,NNW,340,6.0,8.0,62,0.00,,,0.00,Wunderground v.1.15,2013-02-20 02:35:00,
2013-02-19 20:45:00,14.2,3.6,30.40,NNE,16,6.0,6.0,62,0.00,,,0.00,Wunderground v.1.15,2013-02-20 02:45:00,
2013-02-19 20:55:00,14.0,3.7,30.40,NNE,20,6.0,8.0,63,0.00,,,0.00,Wunderground v.1.15,2013-02-20 02:55:00,
2013-02-19 21:00:00,13.8,3.5,30.41,NNE,25,5.0,5.0,63,0.00,,,0.00,Wunderground v.1.15,2013-02-20 03:00:00,
2013-02-19 21:10:00,13.4,3.5,30.42,NW,319,5.0,5.0,64,0.00,,,0.00,Wunderground v.1.15,2013-02-20 03:10:00,
2013-02-19 21:20:00,12.8,3.6,30.42,NNE,26,3.0,3.0,66,0.00,,,0.00,Wunderground v.1.15,2013-02-20 03:20:00,
2013-02-19 21:30:00,12.6,3.4,30.43,North,356,4.0,4.0,66,0.00,,,0.00,Wunderground v.1.15,2013-02-20 03:30:00,
2013-02-19 21:40:00,12.3,3.4,30.43,North,11,3.0,3.0,67,0.00,,,0.00,Wunderground v.1.15,2013-02-20 03:40:00,
2013-02-19 21:50:00,11.5,3.3,30.45,West,278,1.0,2.0,69,0.00,,,0.00,Wunderground v.1.15,2013-02-20 03:50:00,
2013-02-19 22:00:00,10.2,2.4,30.45,WNW,287,3.0,3.0,70,0.00,,,0.00,Wunderground v.1.15,2013-02-20 04:00:00,
2013-02-19 22:10:00,9.9,3.3,30.45,NNW,328,1.0,1.0,74,0.00,,,0.00,Wunderground v.1.15,2013-02-20 04:10:00,
2013-02-19 22:20:00,10.2,3.6,30.44,NNE,15,2.0,6.0,74,0.00,,,0.00,Wunderground v.1.15,2013-02-20 04:20:00,
2013-02-19 22:30:00,11.2,3.3,30.44,NNE,22,6.0,6.0,70,0.00,,,0.00,Wunderground v.1.15,2013-02-20 04:30:00,
2013-02-19 22:40:00,11.2,3.3,30.45,North,359,4.0,4.0,70,0.00,,,0.00,Wunderground v.1.15,2013-02-20 04:40:00,
2013-02-19 22:50:00,10.8,2.9,30.45,North,350,3.0,3.0,70,0.00,,,0.00,Wunderground v.1.15,2013-02-20 04:50:00,
2013-02-19 23:00:00,10.1,2.6,30.47,NW,321,1.0,1.0,71,0.00,,,0.00,Wunderground v.1.15,2013-02-20 05:00:00,
2013-02-19 23:05:00,9.8,2.6,30.47,NNW,340,2.0,2.0,72,0.00,,,0.00,Wunderground v.1.15,2013-02-20 05:05:00,
2013-02-19 23:10:00,9.6,2.4,30.47,WNW,285,1.0,1.0,72,0.00,,,0.00,Wunderground v.1.15,2013-02-20 05:10:00,
2013-02-19 23:15:00,9.3,2.7,30.47,NW,325,1.0,2.0,74,0.00,,,0.00,Wunderground v.1.15,2013-02-20 05:15:00,
2013-02-19 23:20:00,9.0,2.7,30.46,NNW,342,2.0,4.0,75,0.00,,,0.00,Wunderground v.1.15,2013-02-20 05:20:00,
2013-02-19 23:30:00,9.0,3.0,30.46,NNW,343,3.0,3.0,76,0.00,,,0.00,Wunderground v.1.15,2013-02-20 05:30:00,
2013-02-19 23:40:00,9.5,2.9,30.45,NNE,33,4.0,6.0,74,0.00,,,0.00,Wunderground v.1.15,2013-02-20 05:40:00,
2013-02-19 23:50:00,9.3,2.7,30.46,North,352,3.0,4.0,74,0.00,,,0.00,Wunderground v.1.15,2013-02-20 05:50:00,